sensor_id;sensor_type;location;lat;lon;timestamp;temperature;humidity
8188;DHT22;4135;49.184;9.722;2022-12-28T00:01:54;20.00;44.60
8188;DHT22;4135;49.184;9.722;2022-12-28T00:04:23;19.20;43.90
8188;DHT22;4135;49.184;9.722;2022-12-28T00:06:53;19.80;44.40
8188;DHT22;4135;49.184;9.722;2022-12-28T00:09:23;20.30;44.60
8188;DHT22;4135;49.184;9.722;2022-12-28T00:11:53;19.60;44.10
8188;DHT22;4135;49.184;9.722;2022-12-28T00:14:22;19.20;43.70
8188;DHT22;4135;49.184;9.722;2022-12-28T00:16:53;20.30;44.60
8188;DHT22;4135;49.184;9.722;2022-12-28T00:19:22;19.10;43.50
8188;DHT22;4135;49.184;9.722;2022-12-28T00:21:52;19.40;43.80
8188;DHT22;4135;49.184;9.722;2022-12-28T00:24:24;19.30;43.70
8188;DHT22;4135;49.184;9.722;2022-12-28T00:26:53;19.50;43.90
8188;DHT22;4135;49.184;9.722;2022-12-28T00:29:25;19.10;43.50
8188;DHT22;4135;49.184;9.722;2022-12-28T00:31:54;19.10;43.40
8188;DHT22;4135;49.184;9.722;2022-12-28T00:34:24;19.60;43.90
8188;DHT22;4135;49.184;9.722;2022-12-28T00:36:53;19.10;43.40
8188;DHT22;4135;49.184;9.722;2022-12-28T00:39:23;19.00;43.30
8188;DHT22;4135;49.184;9.722;2022-12-28T00:41:52;19.00;43.30
8188;DHT22;4135;49.184;9.722;2022-12-28T00:44:22;19.20;43.50
8188;DHT22;4135;49.184;9.722;2022-12-28T00:46:52;19.70;43.90
8188;DHT22;4135;49.184;9.722;2022-12-28T00:49:21;19.70;43.90
8188;DHT22;4135;49.184;9.722;2022-12-28T00:51:51;19.70;43.90
8188;DHT22;4135;49.184;9.722;2022-12-28T00:54:20;19.10;43.40
8188;DHT22;4135;49.184;9.722;2022-12-28T00:56:50;20.30;44.40
8188;DHT22;4135;49.184;9.722;2022-12-28T00:59:19;19.20;43.50
8188;DHT22;4135;49.184;9.722;2022-12-28T01:01:49;19.30;43.60
8188;DHT22;4135;49.184;9.722;2022-12-28T01:04:18;19.40;43.60
8188;DHT22;4135;49.184;9.722;2022-12-28T01:06:48;19.00;43.20
8188;DHT22;4135;49.184;9.722;2022-12-28T01:09:17;19.20;43.40
8188;DHT22;4135;49.184;9.722;2022-12-28T01:11:47;19.10;43.40
8188;DHT22;4135;49.184;9.722;2022-12-28T01:14:17;19.30;43.60
8188;DHT22;4135;49.184;9.722;2022-12-28T01:16:46;19.20;44.00
8188;DHT22;4135;49.184;9.722;2022-12-28T01:19:19;19.00;43.20
8188;DHT22;4135;49.184;9.722;2022-12-28T01:21:50;18.90;43.20
8188;DHT22;4135;49.184;9.722;2022-12-28T01:24:20;18.90;43.20
8188;DHT22;4135;49.184;9.722;2022-12-28T01:26:49;18.90;43.10
8188;DHT22;4135;49.184;9.722;2022-12-28T01:29:19;19.10;43.30
8188;DHT22;4135;49.184;9.722;2022-12-28T01:31:48;18.90;43.00
8188;DHT22;4135;49.184;9.722;2022-12-28T01:34:18;19.80;43.80
8188;DHT22;4135;49.184;9.722;2022-12-28T01:36:47;19.00;43.10
8188;DHT22;4135;49.184;9.722;2022-12-28T01:39:17;18.90;43.00
8188;DHT22;4135;49.184;9.722;2022-12-28T01:41:47;19.60;43.70
8188;DHT22;4135;49.184;9.722;2022-12-28T01:47:03;19.30;43.30
8188;DHT22;4135;49.184;9.722;2022-12-28T01:50:07;18.80;42.90
8188;DHT22;4135;49.184;9.722;2022-12-28T01:52:49;18.80;42.90
8188;DHT22;4135;49.184;9.722;2022-12-28T01:55:46;18.80;42.80
8188;DHT22;4135;49.184;9.722;2022-12-28T01:58:21;18.80;42.80
8188;DHT22;4135;49.184;9.722;2022-12-28T02:00:53;19.70;43.60
8188;DHT22;4135;49.184;9.722;2022-12-28T02:03:25;18.80;42.70
8188;DHT22;4135;49.184;9.722;2022-12-28T02:05:57;19.70;43.60
8188;DHT22;4135;49.184;9.722;2022-12-28T02:08:59;19.10;43.10
8188;DHT22;4135;49.184;9.722;2022-12-28T02:11:29;18.70;42.80
8188;DHT22;4135;49.184;9.722;2022-12-28T02:14:00;19.20;43.20
8188;DHT22;4135;49.184;9.722;2022-12-28T02:16:31;18.70;42.70
8188;DHT22;4135;49.184;9.722;2022-12-28T02:19:00;18.70;42.70
8188;DHT22;4135;49.184;9.722;2022-12-28T02:27:24;18.70;42.70
8188;DHT22;4135;49.184;9.722;2022-12-28T02:30:07;18.70;42.70
8188;DHT22;4135;49.184;9.722;2022-12-28T02:35:57;18.70;42.70
8188;DHT22;4135;49.184;9.722;2022-12-28T02:38:46;19.80;43.60
8188;DHT22;4135;49.184;9.722;2022-12-28T02:41:24;18.60;42.60
8188;DHT22;4135;49.184;9.722;2022-12-28T02:43:54;18.60;42.50
8188;DHT22;4135;49.184;9.722;2022-12-28T02:46:27;18.70;42.70
8188;DHT22;4135;49.184;9.722;2022-12-28T02:49:24;18.60;42.60
8188;DHT22;4135;49.184;9.722;2022-12-28T02:52:18;18.60;42.60
8188;DHT22;4135;49.184;9.722;2022-12-28T02:55:00;18.60;42.60
8188;DHT22;4135;49.184;9.722;2022-12-28T03:04:00;18.60;42.60
8188;DHT22;4135;49.184;9.722;2022-12-28T03:07:26;18.60;42.60
8188;DHT22;4135;49.184;9.722;2022-12-28T03:10:12;18.60;42.60
8188;DHT22;4135;49.184;9.722;2022-12-28T03:15:29;18.60;42.60
8188;DHT22;4135;49.184;9.722;2022-12-28T03:18:10;19.00;43.00
8188;DHT22;4135;49.184;9.722;2022-12-28T03:21:03;18.60;42.60
8188;DHT22;4135;49.184;9.722;2022-12-28T03:23:52;18.60;42.60
8188;DHT22;4135;49.184;9.722;2022-12-28T03:26:46;18.60;42.50
8188;DHT22;4135;49.184;9.722;2022-12-28T03:29:40;19.10;43.00
8188;DHT22;4135;49.184;9.722;2022-12-28T03:32:29;18.60;42.50
8188;DHT22;4135;49.184;9.722;2022-12-28T03:34:59;18.60;42.50
8188;DHT22;4135;49.184;9.722;2022-12-28T03:37:36;19.20;43.10
8188;DHT22;4135;49.184;9.722;2022-12-28T03:40:20;18.50;42.40
8188;DHT22;4135;49.184;9.722;2022-12-28T03:42:53;18.80;42.70
8188;DHT22;4135;49.184;9.722;2022-12-28T03:46:30;19.10;43.00
8188;DHT22;4135;49.184;9.722;2022-12-28T03:48:42;18.50;42.50
8188;DHT22;4135;49.184;9.722;2022-12-28T03:51:13;19.30;43.10
8188;DHT22;4135;49.184;9.722;2022-12-28T03:53:45;18.50;42.40
8188;DHT22;4135;49.184;9.722;2022-12-28T03:56:21;18.50;42.50
8188;DHT22;4135;49.184;9.722;2022-12-28T03:58:52;18.50;42.40
8188;DHT22;4135;49.184;9.722;2022-12-28T04:01:21;19.30;43.10
8188;DHT22;4135;49.184;9.722;2022-12-28T04:03:51;18.50;42.40
8188;DHT22;4135;49.184;9.722;2022-12-28T04:06:20;19.50;43.20
8188;DHT22;4135;49.184;9.722;2022-12-28T04:08:50;19.30;43.10
8188;DHT22;4135;49.184;9.722;2022-12-28T04:11:20;19.10;42.90
8188;DHT22;4135;49.184;9.722;2022-12-28T04:13:49;19.90;43.60
8188;DHT22;4135;49.184;9.722;2022-12-28T04:16:20;18.50;42.40
8188;DHT22;4135;49.184;9.722;2022-12-28T04:18:50;19.60;43.40
8188;DHT22;4135;49.184;9.722;2022-12-28T04:21:19;19.60;43.30
8188;DHT22;4135;49.184;9.722;2022-12-28T04:23:49;18.50;42.40
8188;DHT22;4135;49.184;9.722;2022-12-28T04:26:18;18.60;42.50
8188;DHT22;4135;49.184;9.722;2022-12-28T04:28:48;19.20;43.00
8188;DHT22;4135;49.184;9.722;2022-12-28T04:31:18;19.00;42.80
8188;DHT22;4135;49.184;9.722;2022-12-28T04:33:47;18.40;42.30
8188;DHT22;4135;49.184;9.722;2022-12-28T04:36:17;18.40;42.30
8188;DHT22;4135;49.184;9.722;2022-12-28T04:38:46;19.30;43.00
8188;DHT22;4135;49.184;9.722;2022-12-28T04:41:16;19.50;43.30
8188;DHT22;4135;49.184;9.722;2022-12-28T04:43:46;19.60;43.40
8188;DHT22;4135;49.184;9.722;2022-12-28T04:46:16;18.40;42.30
8188;DHT22;4135;49.184;9.722;2022-12-28T04:48:45;19.00;42.80
8188;DHT22;4135;49.184;9.722;2022-12-28T04:51:18;19.20;43.00
8188;DHT22;4135;49.184;9.722;2022-12-28T04:53:48;18.40;42.30
8188;DHT22;4135;49.184;9.722;2022-12-28T04:56:19;18.40;42.30
8188;DHT22;4135;49.184;9.722;2022-12-28T04:58:53;18.40;42.40
8188;DHT22;4135;49.184;9.722;2022-12-28T05:01:23;19.30;43.10
8188;DHT22;4135;49.184;9.722;2022-12-28T05:03:53;18.40;42.30
8188;DHT22;4135;49.184;9.722;2022-12-28T05:06:24;18.90;42.70
8188;DHT22;4135;49.184;9.722;2022-12-28T05:08:55;18.40;42.20
8188;DHT22;4135;49.184;9.722;2022-12-28T05:11:27;18.80;42.60
8188;DHT22;4135;49.184;9.722;2022-12-28T05:13:57;18.70;42.60
8188;DHT22;4135;49.184;9.722;2022-12-28T05:16:28;18.40;42.30
8188;DHT22;4135;49.184;9.722;2022-12-28T05:18:57;18.60;42.40
8188;DHT22;4135;49.184;9.722;2022-12-28T05:21:27;18.40;42.30
8188;DHT22;4135;49.184;9.722;2022-12-28T05:23:57;18.40;42.20
8188;DHT22;4135;49.184;9.722;2022-12-28T05:26:28;18.30;42.20
8188;DHT22;4135;49.184;9.722;2022-12-28T05:28:57;18.90;42.80
8188;DHT22;4135;49.184;9.722;2022-12-28T05:31:27;18.40;42.30
8188;DHT22;4135;49.184;9.722;2022-12-28T05:33:57;18.40;42.40
8188;DHT22;4135;49.184;9.722;2022-12-28T05:36:27;18.40;42.30
8188;DHT22;4135;49.184;9.722;2022-12-28T05:38:56;18.60;42.50
8188;DHT22;4135;49.184;9.722;2022-12-28T05:41:27;18.40;42.30
8188;DHT22;4135;49.184;9.722;2022-12-28T05:43:58;18.40;42.40
8188;DHT22;4135;49.184;9.722;2022-12-28T05:46:31;19.00;43.00
8188;DHT22;4135;49.184;9.722;2022-12-28T05:49:01;18.40;42.50
8188;DHT22;4135;49.184;9.722;2022-12-28T05:51:31;18.50;42.60
8188;DHT22;4135;49.184;9.722;2022-12-28T05:54:02;18.50;42.60
8188;DHT22;4135;49.184;9.722;2022-12-28T05:56:35;18.50;42.60
8188;DHT22;4135;49.184;9.722;2022-12-28T05:59:06;18.50;42.50
8188;DHT22;4135;49.184;9.722;2022-12-28T06:01:39;18.50;42.90
8188;DHT22;4135;49.184;9.722;2022-12-28T06:04:17;18.50;42.50
8188;DHT22;4135;49.184;9.722;2022-12-28T06:06:47;18.50;42.60
8188;DHT22;4135;49.184;9.722;2022-12-28T06:09:17;18.60;42.60
8188;DHT22;4135;49.184;9.722;2022-12-28T06:11:46;18.50;42.50
8188;DHT22;4135;49.184;9.722;2022-12-28T06:14:16;18.50;42.50
8188;DHT22;4135;49.184;9.722;2022-12-28T06:16:45;18.50;42.50
8188;DHT22;4135;49.184;9.722;2022-12-28T06:19:15;18.90;42.80
8188;DHT22;4135;49.184;9.722;2022-12-28T06:21:45;18.50;42.40
8188;DHT22;4135;49.184;9.722;2022-12-28T06:24:14;19.10;42.90
8188;DHT22;4135;49.184;9.722;2022-12-28T06:26:46;18.60;42.50
8188;DHT22;4135;49.184;9.722;2022-12-28T06:29:16;19.70;43.40
8188;DHT22;4135;49.184;9.722;2022-12-28T06:31:46;18.50;42.40
8188;DHT22;4135;49.184;9.722;2022-12-28T06:34:16;18.50;43.10
8188;DHT22;4135;49.184;9.722;2022-12-28T06:36:49;18.90;42.70
8188;DHT22;4135;49.184;9.722;2022-12-28T06:39:19;18.50;42.40
8188;DHT22;4135;49.184;9.722;2022-12-28T06:41:49;18.50;42.40
8188;DHT22;4135;49.184;9.722;2022-12-28T06:44:18;19.40;43.10
8188;DHT22;4135;49.184;9.722;2022-12-28T06:46:48;18.50;42.30
8188;DHT22;4135;49.184;9.722;2022-12-28T06:49:17;19.10;42.90
8188;DHT22;4135;49.184;9.722;2022-12-28T06:51:47;18.90;42.60
8188;DHT22;4135;49.184;9.722;2022-12-28T06:54:16;19.00;42.80
8188;DHT22;4135;49.184;9.722;2022-12-28T06:56:46;18.50;42.30
8188;DHT22;4135;49.184;9.722;2022-12-28T06:59:15;18.50;42.30
8188;DHT22;4135;49.184;9.722;2022-12-28T07:01:45;18.50;42.30
8188;DHT22;4135;49.184;9.722;2022-12-28T07:04:14;19.00;42.70
8188;DHT22;4135;49.184;9.722;2022-12-28T07:06:44;18.50;42.30
8188;DHT22;4135;49.184;9.722;2022-12-28T07:09:15;18.50;42.40
8188;DHT22;4135;49.184;9.722;2022-12-28T07:11:44;18.50;42.40
8188;DHT22;4135;49.184;9.722;2022-12-28T07:14:14;18.50;42.30
8188;DHT22;4135;49.184;9.722;2022-12-28T07:16:43;19.00;42.90
8188;DHT22;4135;49.184;9.722;2022-12-28T07:19:13;18.50;42.40
8188;DHT22;4135;49.184;9.722;2022-12-28T07:21:42;19.60;43.30
8188;DHT22;4135;49.184;9.722;2022-12-28T07:24:12;18.50;42.40
8188;DHT22;4135;49.184;9.722;2022-12-28T07:26:42;18.40;42.30
8188;DHT22;4135;49.184;9.722;2022-12-28T07:29:11;18.40;42.30
8188;DHT22;4135;49.184;9.722;2022-12-28T07:31:41;18.50;42.40
8188;DHT22;4135;49.184;9.722;2022-12-28T07:34:12;18.50;42.30
8188;DHT22;4135;49.184;9.722;2022-12-28T07:36:42;19.10;43.00
8188;DHT22;4135;49.184;9.722;2022-12-28T07:39:12;19.20;43.00
8188;DHT22;4135;49.184;9.722;2022-12-28T07:41:41;19.00;43.00
8188;DHT22;4135;49.184;9.722;2022-12-28T07:44:11;19.50;43.30
8188;DHT22;4135;49.184;9.722;2022-12-28T07:46:40;19.40;43.10
8188;DHT22;4135;49.184;9.722;2022-12-28T07:49:10;18.50;42.40
8188;DHT22;4135;49.184;9.722;2022-12-28T07:51:39;19.50;43.40
8188;DHT22;4135;49.184;9.722;2022-12-28T07:54:09;18.60;42.70
8188;DHT22;4135;49.184;9.722;2022-12-28T07:56:38;19.70;43.50
8188;DHT22;4135;49.184;9.722;2022-12-28T07:59:09;19.30;43.00
8188;DHT22;4135;49.184;9.722;2022-12-28T08:01:38;19.50;43.40
8188;DHT22;4135;49.184;9.722;2022-12-28T08:04:13;18.60;42.40
8188;DHT22;4135;49.184;9.722;2022-12-28T08:06:45;18.60;42.60
8188;DHT22;4135;49.184;9.722;2022-12-28T08:09:14;18.60;42.40
8188;DHT22;4135;49.184;9.722;2022-12-28T08:11:44;18.60;43.00
8188;DHT22;4135;49.184;9.722;2022-12-28T08:14:16;18.60;42.40
8188;DHT22;4135;49.184;9.722;2022-12-28T08:16:46;19.40;43.10
8188;DHT22;4135;49.184;9.722;2022-12-28T08:19:15;18.60;42.50
8188;DHT22;4135;49.184;9.722;2022-12-28T08:21:45;19.50;43.10
8188;DHT22;4135;49.184;9.722;2022-12-28T08:24:17;18.60;42.30
8188;DHT22;4135;49.184;9.722;2022-12-28T08:26:47;19.30;42.90
8188;DHT22;4135;49.184;9.722;2022-12-28T08:29:19;18.70;42.30
8188;DHT22;4135;49.184;9.722;2022-12-28T08:31:49;18.70;42.30
8188;DHT22;4135;49.184;9.722;2022-12-28T08:34:20;19.10;42.80
8188;DHT22;4135;49.184;9.722;2022-12-28T08:36:55;19.80;43.50
8188;DHT22;4135;49.184;9.722;2022-12-28T08:39:24;18.70;42.40
8188;DHT22;4135;49.184;9.722;2022-12-28T08:41:54;19.50;43.10
8188;DHT22;4135;49.184;9.722;2022-12-28T08:44:25;18.70;42.40
8188;DHT22;4135;49.184;9.722;2022-12-28T08:46:54;18.80;42.40
8188;DHT22;4135;49.184;9.722;2022-12-28T08:49:24;19.80;43.50
8188;DHT22;4135;49.184;9.722;2022-12-28T08:51:54;18.70;42.50
8188;DHT22;4135;49.184;9.722;2022-12-28T08:54:23;18.70;42.40
8188;DHT22;4135;49.184;9.722;2022-12-28T08:56:53;18.70;42.20
8188;DHT22;4135;49.184;9.722;2022-12-28T08:59:23;19.00;42.70
8188;DHT22;4135;49.184;9.722;2022-12-28T09:01:52;19.40;43.10
8188;DHT22;4135;49.184;9.722;2022-12-28T09:04:22;18.70;42.20
8188;DHT22;4135;49.184;9.722;2022-12-28T09:06:51;18.80;42.40
8188;DHT22;4135;49.184;9.722;2022-12-28T09:09:21;18.80;43.10
8188;DHT22;4135;49.184;9.722;2022-12-28T09:11:50;19.60;43.10
8188;DHT22;4135;49.184;9.722;2022-12-28T09:17:46;18.80;42.40
8188;DHT22;4135;49.184;9.722;2022-12-28T09:20:16;19.00;42.70
8188;DHT22;4135;49.184;9.722;2022-12-28T09:22:46;18.80;42.50
8188;DHT22;4135;49.184;9.722;2022-12-28T09:25:15;19.30;42.90
8188;DHT22;4135;49.184;9.722;2022-12-28T09:27:47;18.80;42.40
8188;DHT22;4135;49.184;9.722;2022-12-28T09:30:17;18.80;42.40
8188;DHT22;4135;49.184;9.722;2022-12-28T09:32:46;18.80;42.40
8188;DHT22;4135;49.184;9.722;2022-12-28T09:35:36;18.80;42.40
8188;DHT22;4135;49.184;9.722;2022-12-28T09:38:05;18.80;42.30
8188;DHT22;4135;49.184;9.722;2022-12-28T09:40:36;19.70;43.10
8188;DHT22;4135;49.184;9.722;2022-12-28T09:43:09;18.90;42.30
8188;DHT22;4135;49.184;9.722;2022-12-28T09:45:40;19.00;42.50
8188;DHT22;4135;49.184;9.722;2022-12-28T09:48:14;19.30;42.60
8188;DHT22;4135;49.184;9.722;2022-12-28T09:50:46;19.60;43.30
8188;DHT22;4135;49.184;9.722;2022-12-28T09:53:32;18.70;42.90
8188;DHT22;4135;49.184;9.722;2022-12-28T09:56:09;18.70;43.00
8188;DHT22;4135;49.184;9.722;2022-12-28T09:58:42;18.70;43.20
8188;DHT22;4135;49.184;9.722;2022-12-28T10:01:15;18.90;43.20
8188;DHT22;4135;49.184;9.722;2022-12-28T10:03:46;18.70;43.00
8188;DHT22;4135;49.184;9.722;2022-12-28T10:06:20;18.90;43.10
8188;DHT22;4135;49.184;9.722;2022-12-28T10:08:52;18.80;43.00
8188;DHT22;4135;49.184;9.722;2022-12-28T10:11:32;18.70;42.90
8188;DHT22;4135;49.184;9.722;2022-12-28T10:16:44;18.60;42.70
8188;DHT22;4135;49.184;9.722;2022-12-28T10:19:18;19.40;43.40
8188;DHT22;4135;49.184;9.722;2022-12-28T10:22:02;19.20;43.20
8188;DHT22;4135;49.184;9.722;2022-12-28T10:24:32;18.50;42.60
8188;DHT22;4135;49.184;9.722;2022-12-28T10:27:05;18.70;42.70
8188;DHT22;4135;49.184;9.722;2022-12-28T10:29:35;18.60;42.60
8188;DHT22;4135;49.184;9.722;2022-12-28T10:32:08;18.60;42.50
8188;DHT22;4135;49.184;9.722;2022-12-28T10:34:54;18.50;42.40
8188;DHT22;4135;49.184;9.722;2022-12-28T10:37:34;18.60;42.50
8188;DHT22;4135;49.184;9.722;2022-12-28T10:40:24;18.70;42.50
8188;DHT22;4135;49.184;9.722;2022-12-28T10:42:56;18.60;42.40
8188;DHT22;4135;49.184;9.722;2022-12-28T10:45:37;18.70;42.50
8188;DHT22;4135;49.184;9.722;2022-12-28T10:48:14;19.10;42.90
8188;DHT22;4135;49.184;9.722;2022-12-28T10:58:45;18.80;42.40
8188;DHT22;4135;49.184;9.722;2022-12-28T11:01:17;18.90;42.60
8188;DHT22;4135;49.184;9.722;2022-12-28T11:04:00;19.30;42.90
8188;DHT22;4135;49.184;9.722;2022-12-28T11:06:34;19.10;42.60
8188;DHT22;4135;49.184;9.722;2022-12-28T11:09:16;19.10;42.50
8188;DHT22;4135;49.184;9.722;2022-12-28T11:11:50;19.30;42.50
8188;DHT22;4135;49.184;9.722;2022-12-28T11:17:24;19.30;42.50
8188;DHT22;4135;49.184;9.722;2022-12-28T11:19:57;19.40;42.50
8188;DHT22;4135;49.184;9.722;2022-12-28T11:22:29;19.40;42.50
8188;DHT22;4135;49.184;9.722;2022-12-28T11:25:00;19.40;42.60
8188;DHT22;4135;49.184;9.722;2022-12-28T11:27:30;19.40;42.70
8188;DHT22;4135;49.184;9.722;2022-12-28T11:30:01;19.40;42.80
8188;DHT22;4135;49.184;9.722;2022-12-28T11:32:35;20.00;43.40
8188;DHT22;4135;49.184;9.722;2022-12-28T11:35:06;19.30;42.90
8188;DHT22;4135;49.184;9.722;2022-12-28T11:37:35;19.30;42.90
8188;DHT22;4135;49.184;9.722;2022-12-28T11:43:35;19.50;43.10
8188;DHT22;4135;49.184;9.722;2022-12-28T11:49:02;19.60;43.10
8188;DHT22;4135;49.184;9.722;2022-12-28T11:51:36;19.50;43.10
8188;DHT22;4135;49.184;9.722;2022-12-28T11:54:34;20.10;43.50
8188;DHT22;4135;49.184;9.722;2022-12-28T11:57:06;19.70;42.90
8188;DHT22;4135;49.184;9.722;2022-12-28T11:59:36;19.70;43.00
8188;DHT22;4135;49.184;9.722;2022-12-28T12:04:58;20.70;43.70
8188;DHT22;4135;49.184;9.722;2022-12-28T12:07:45;19.80;42.90
8188;DHT22;4135;49.184;9.722;2022-12-28T12:10:35;19.90;43.10
8188;DHT22;4135;49.184;9.722;2022-12-28T12:16:03;19.90;43.00
8188;DHT22;4135;49.184;9.722;2022-12-28T12:18:53;20.00;42.90
8188;DHT22;4135;49.184;9.722;2022-12-28T12:21:36;20.00;43.10
8188;DHT22;4135;49.184;9.722;2022-12-28T12:24:24;19.90;43.20
8188;DHT22;4135;49.184;9.722;2022-12-28T12:27:03;20.00;43.50
8188;DHT22;4135;49.184;9.722;2022-12-28T12:29:43;20.70;44.00
8188;DHT22;4135;49.184;9.722;2022-12-28T12:32:27;21.40;43.70
8188;DHT22;4135;49.184;9.722;2022-12-28T12:35:04;21.10;42.40
8188;DHT22;4135;49.184;9.722;2022-12-28T12:40:11;20.50;42.60
8188;DHT22;4135;49.184;9.722;2022-12-28T12:43:15;20.60;42.80
8188;DHT22;4135;49.184;9.722;2022-12-28T12:51:36;20.80;42.50
8188;DHT22;4135;49.184;9.722;2022-12-28T12:54:44;20.50;42.10
8188;DHT22;4135;49.184;9.722;2022-12-28T12:57:19;20.50;41.60
8188;DHT22;4135;49.184;9.722;2022-12-28T13:00:07;20.50;41.80
8188;DHT22;4135;49.184;9.722;2022-12-28T13:03:06;20.90;42.30
8188;DHT22;4135;49.184;9.722;2022-12-28T13:05:41;20.10;41.50
8188;DHT22;4135;49.184;9.722;2022-12-28T13:08:25;20.10;41.70
8188;DHT22;4135;49.184;9.722;2022-12-28T13:10:56;20.30;41.70
8188;DHT22;4135;49.184;9.722;2022-12-28T13:13:34;20.60;41.40
8188;DHT22;4135;49.184;9.722;2022-12-28T13:16:08;21.10;41.60
8188;DHT22;4135;49.184;9.722;2022-12-28T13:18:38;21.50;41.70
8188;DHT22;4135;49.184;9.722;2022-12-28T13:21:19;20.60;41.00
8188;DHT22;4135;49.184;9.722;2022-12-28T13:23:50;20.60;40.90
8188;DHT22;4135;49.184;9.722;2022-12-28T13:26:26;20.70;41.40
8188;DHT22;4135;49.184;9.722;2022-12-28T13:29:01;20.50;41.50
8188;DHT22;4135;49.184;9.722;2022-12-28T13:31:37;20.40;41.80
8188;DHT22;4135;49.184;9.722;2022-12-28T13:34:21;20.20;41.90
8188;DHT22;4135;49.184;9.722;2022-12-28T13:36:56;20.30;42.10
8188;DHT22;4135;49.184;9.722;2022-12-28T13:39:33;21.30;43.10
8188;DHT22;4135;49.184;9.722;2022-12-28T13:42:10;20.50;42.50
8188;DHT22;4135;49.184;9.722;2022-12-28T13:44:55;20.30;42.40
8188;DHT22;4135;49.184;9.722;2022-12-28T13:47:39;20.20;42.40
8188;DHT22;4135;49.184;9.722;2022-12-28T13:50:27;20.20;42.40
8188;DHT22;4135;49.184;9.722;2022-12-28T13:52:59;20.20;42.50
8188;DHT22;4135;49.184;9.722;2022-12-28T13:55:50;20.20;42.50
8188;DHT22;4135;49.184;9.722;2022-12-28T13:58:28;20.20;42.50
8188;DHT22;4135;49.184;9.722;2022-12-28T14:01:01;21.20;43.40
8188;DHT22;4135;49.184;9.722;2022-12-28T14:03:32;20.20;42.60
8188;DHT22;4135;49.184;9.722;2022-12-28T14:06:06;20.90;43.30
8188;DHT22;4135;49.184;9.722;2022-12-28T14:08:37;20.10;42.70
8188;DHT22;4135;49.184;9.722;2022-12-28T14:11:07;20.10;42.70
8188;DHT22;4135;49.184;9.722;2022-12-28T14:13:38;20.80;43.40
8188;DHT22;4135;49.184;9.722;2022-12-28T14:16:08;20.00;42.70
8188;DHT22;4135;49.184;9.722;2022-12-28T14:18:38;20.90;43.50
8188;DHT22;4135;49.184;9.722;2022-12-28T14:21:07;20.50;43.20
8188;DHT22;4135;49.184;9.722;2022-12-28T14:23:38;21.10;43.70
8188;DHT22;4135;49.184;9.722;2022-12-28T14:26:17;20.50;43.50
8188;DHT22;4135;49.184;9.722;2022-12-28T14:28:51;20.00;43.00
8188;DHT22;4135;49.184;9.722;2022-12-28T14:31:31;20.00;43.00
8188;DHT22;4135;49.184;9.722;2022-12-28T14:34:03;20.00;43.00
8188;DHT22;4135;49.184;9.722;2022-12-28T14:36:41;19.90;42.90
8188;DHT22;4135;49.184;9.722;2022-12-28T14:39:30;20.00;43.00
8188;DHT22;4135;49.184;9.722;2022-12-28T14:42:04;19.90;43.00
8188;DHT22;4135;49.184;9.722;2022-12-28T14:44:38;19.90;43.10
8188;DHT22;4135;49.184;9.722;2022-12-28T14:47:43;19.90;43.10
8188;DHT22;4135;49.184;9.722;2022-12-28T14:50:28;19.90;43.10
8188;DHT22;4135;49.184;9.722;2022-12-28T14:53:18;20.40;43.60
8188;DHT22;4135;49.184;9.722;2022-12-28T14:56:01;20.10;43.40
8188;DHT22;4135;49.184;9.722;2022-12-28T14:58:46;19.80;43.10
8188;DHT22;4135;49.184;9.722;2022-12-28T15:01:18;19.80;43.10
8188;DHT22;4135;49.184;9.722;2022-12-28T15:03:56;20.40;43.70
8188;DHT22;4135;49.184;9.722;2022-12-28T15:06:29;20.50;43.90
8188;DHT22;4135;49.184;9.722;2022-12-28T15:08:59;20.00;43.50
8188;DHT22;4135;49.184;9.722;2022-12-28T15:11:29;20.20;43.70
8188;DHT22;4135;49.184;9.722;2022-12-28T15:13:59;19.90;43.50
8188;DHT22;4135;49.184;9.722;2022-12-28T15:16:29;19.90;43.40
8188;DHT22;4135;49.184;9.722;2022-12-28T15:18:58;20.30;43.80
8188;DHT22;4135;49.184;9.722;2022-12-28T15:21:28;20.80;44.30
8188;DHT22;4135;49.184;9.722;2022-12-28T15:23:57;19.80;43.20
8188;DHT22;4135;49.184;9.722;2022-12-28T15:26:27;20.00;43.50
8188;DHT22;4135;49.184;9.722;2022-12-28T15:28:56;19.80;43.30
8188;DHT22;4135;49.184;9.722;2022-12-28T15:31:26;20.50;44.00
8188;DHT22;4135;49.184;9.722;2022-12-28T15:33:55;19.80;43.50
8188;DHT22;4135;49.184;9.722;2022-12-28T15:36:25;20.10;43.80
8188;DHT22;4135;49.184;9.722;2022-12-28T15:38:55;19.90;43.70
8188;DHT22;4135;49.184;9.722;2022-12-28T15:41:25;19.80;43.60
8188;DHT22;4135;49.184;9.722;2022-12-28T15:44:15;20.20;43.90
8188;DHT22;4135;49.184;9.722;2022-12-28T15:46:46;19.80;43.60
8188;DHT22;4135;49.184;9.722;2022-12-28T15:49:18;19.80;43.60
8188;DHT22;4135;49.184;9.722;2022-12-28T15:51:47;19.80;43.60
8188;DHT22;4135;49.184;9.722;2022-12-28T15:54:17;20.00;43.80
8188;DHT22;4135;49.184;9.722;2022-12-28T15:56:52;19.80;43.60
8188;DHT22;4135;49.184;9.722;2022-12-28T15:59:22;19.80;43.60
8188;DHT22;4135;49.184;9.722;2022-12-28T16:01:51;20.10;43.80
8188;DHT22;4135;49.184;9.722;2022-12-28T16:04:21;20.00;43.80
8188;DHT22;4135;49.184;9.722;2022-12-28T16:06:50;19.80;43.60
8188;DHT22;4135;49.184;9.722;2022-12-28T16:09:20;19.80;43.60
8188;DHT22;4135;49.184;9.722;2022-12-28T16:11:50;19.70;43.60
8188;DHT22;4135;49.184;9.722;2022-12-28T16:14:19;19.80;43.70
8188;DHT22;4135;49.184;9.722;2022-12-28T16:16:49;19.80;43.70
8188;DHT22;4135;49.184;9.722;2022-12-28T16:19:19;19.70;43.60
8188;DHT22;4135;49.184;9.722;2022-12-28T16:21:49;20.10;43.90
8188;DHT22;4135;49.184;9.722;2022-12-28T16:24:19;20.20;44.10
8188;DHT22;4135;49.184;9.722;2022-12-28T16:26:49;19.90;43.80
8188;DHT22;4135;49.184;9.722;2022-12-28T16:29:19;20.50;44.30
8188;DHT22;4135;49.184;9.722;2022-12-28T16:31:48;19.70;43.60
8188;DHT22;4135;49.184;9.722;2022-12-28T16:34:20;20.20;44.00
8188;DHT22;4135;49.184;9.722;2022-12-28T16:36:50;20.50;44.40
8188;DHT22;4135;49.184;9.722;2022-12-28T16:39:26;20.10;44.00
8188;DHT22;4135;49.184;9.722;2022-12-28T16:41:57;20.20;44.10
8188;DHT22;4135;49.184;9.722;2022-12-28T16:44:27;20.50;44.40
8188;DHT22;4135;49.184;9.722;2022-12-28T16:46:57;19.70;43.70
8188;DHT22;4135;49.184;9.722;2022-12-28T16:49:27;20.50;44.40
8188;DHT22;4135;49.184;9.722;2022-12-28T16:51:57;20.50;44.40
8188;DHT22;4135;49.184;9.722;2022-12-28T16:54:27;20.10;44.10
8188;DHT22;4135;49.184;9.722;2022-12-28T16:56:57;19.70;43.70
8188;DHT22;4135;49.184;9.722;2022-12-28T16:59:27;20.40;44.30
8188;DHT22;4135;49.184;9.722;2022-12-28T17:01:57;19.70;43.70
8188;DHT22;4135;49.184;9.722;2022-12-28T17:04:27;19.70;43.70
8188;DHT22;4135;49.184;9.722;2022-12-28T17:06:56;20.60;44.50
8188;DHT22;4135;49.184;9.722;2022-12-28T17:09:26;20.40;44.30
8188;DHT22;4135;49.184;9.722;2022-12-28T17:11:55;19.70;43.70
8188;DHT22;4135;49.184;9.722;2022-12-28T17:14:25;19.60;43.70
8188;DHT22;4135;49.184;9.722;2022-12-28T17:16:54;19.70;43.70
8188;DHT22;4135;49.184;9.722;2022-12-28T17:19:24;19.60;43.60
8188;DHT22;4135;49.184;9.722;2022-12-28T17:21:54;19.60;43.60
8188;DHT22;4135;49.184;9.722;2022-12-28T17:24:24;20.00;44.00
8188;DHT22;4135;49.184;9.722;2022-12-28T17:26:54;19.60;43.70
8188;DHT22;4135;49.184;9.722;2022-12-28T17:29:24;19.70;43.80
8188;DHT22;4135;49.184;9.722;2022-12-28T17:31:53;19.60;44.10
8188;DHT22;4135;49.184;9.722;2022-12-28T17:34:23;20.20;44.70
8188;DHT22;4135;49.184;9.722;2022-12-28T17:36:53;19.50;44.10
8188;DHT22;4135;49.184;9.722;2022-12-28T17:39:22;19.60;44.20
8188;DHT22;4135;49.184;9.722;2022-12-28T17:41:52;19.60;44.10